createdAt,value
2019-06-27T00:00:26.875Z,78.74
2019-06-27T00:01:03.058Z,78.84
2019-06-27T00:01:39.350Z,78.84
2019-06-27T00:02:15.541Z,78.82
2019-06-27T00:02:51.426Z,78.75
2019-06-27T00:03:27.518Z,78.72
2019-06-27T00:04:03.816Z,78.72
2019-06-27T00:04:39.809Z,78.70
2019-06-27T00:05:15.879Z,78.69
2019-06-27T00:05:52.035Z,78.67
2019-06-27T00:06:28.091Z,78.56
2019-06-27T00:07:04.099Z,78.32
2019-06-27T00:07:40.151Z,78.32
2019-06-27T00:08:16.264Z,78.51
2019-06-27T00:08:52.283Z,78.51
2019-06-27T00:09:28.370Z,78.50
2019-06-27T00:10:04.926Z,78.52
2019-06-27T00:10:40.797Z,78.52
2019-06-27T00:11:16.623Z,78.52
2019-06-27T00:11:52.999Z,78.54
2019-06-27T00:12:29.049Z,78.58
2019-06-27T00:13:05.082Z,78.79
2019-06-27T00:13:41.135Z,78.54
2019-06-27T00:14:17.392Z,78.04
2019-06-27T00:14:53.408Z,78.04
2019-06-27T00:15:29.272Z,78.38
2019-06-27T00:16:05.367Z,78.50
2019-06-27T00:16:41.354Z,78.50
2019-06-27T00:17:17.717Z,78.64
2019-06-27T00:17:54.065Z,78.64
2019-06-27T00:18:29.873Z,78.36
2019-06-27T00:19:06.138Z,78.36
2019-06-27T00:19:42.375Z,78.29
2019-06-27T00:20:18.956Z,78.28
2019-06-27T00:20:58.699Z,78.17
2019-06-27T00:21:37.525Z,78.16
2019-06-27T00:22:14.127Z,78.06
2019-06-27T00:22:50.337Z,78.07
2019-06-27T00:23:29.481Z,78.02
2019-06-27T00:24:05.881Z,78.00
2019-06-27T00:24:41.869Z,78.02
2019-06-27T00:25:18.298Z,77.99
2019-06-27T00:25:54.769Z,77.97
2019-06-27T00:26:30.926Z,77.96
2019-06-27T00:27:06.927Z,77.86
2019-06-27T00:27:42.871Z,77.86
2019-06-27T00:28:19.147Z,77.84
2019-06-27T00:28:55.125Z,77.77
2019-06-27T00:29:31.191Z,77.77
2019-06-27T00:30:07.463Z,77.70
2019-06-27T00:30:43.777Z,77.63
2019-06-27T00:31:19.965Z,77.67
2019-06-27T00:31:56.205Z,77.66
2019-06-27T00:32:32.357Z,77.60
2019-06-27T00:33:08.288Z,77.58
2019-06-27T00:33:44.473Z,77.54
2019-06-27T00:34:20.594Z,77.49
2019-06-27T00:34:56.597Z,77.50
2019-06-27T00:35:32.436Z,77.50
2019-06-27T00:36:08.546Z,77.49
2019-06-27T00:36:44.564Z,77.40
2019-06-27T00:37:21.073Z,77.32
2019-06-27T00:37:57.110Z,77.29
2019-06-27T00:38:33.424Z,77.30
2019-06-27T00:39:09.295Z,77.26
2019-06-27T00:39:45.192Z,77.30
2019-06-27T00:40:21.128Z,77.28
2019-06-27T00:40:57.220Z,77.25
2019-06-27T00:41:33.345Z,77.19
2019-06-27T00:42:09.149Z,77.23
2019-06-27T00:42:45.217Z,77.16
2019-06-27T00:43:21.617Z,77.17
2019-06-27T00:43:58.092Z,77.13
2019-06-27T00:44:34.304Z,77.06
2019-06-27T00:45:10.596Z,76.96
2019-06-27T00:45:46.757Z,76.92
2019-06-27T00:46:23.227Z,76.75
2019-06-27T00:46:59.296Z,76.68
2019-06-27T00:47:35.577Z,76.60
2019-06-27T00:48:11.836Z,76.42
2019-06-27T00:48:47.936Z,76.36
2019-06-27T00:49:23.866Z,76.31
2019-06-27T00:50:00.098Z,76.26
2019-06-27T00:50:36.387Z,76.14
2019-06-27T00:51:12.860Z,76.09
2019-06-27T00:51:48.826Z,75.97
2019-06-27T00:52:24.891Z,75.94
2019-06-27T00:53:00.969Z,75.86
2019-06-27T00:53:37.026Z,75.72
2019-06-27T00:54:13.122Z,75.71
2019-06-27T00:54:49.218Z,75.65
2019-06-27T00:55:25.384Z,75.71
2019-06-27T00:56:01.507Z,75.76
2019-06-27T00:56:37.654Z,75.60
2019-06-27T00:57:14.923Z,75.33
2019-06-27T00:57:50.993Z,75.18
2019-06-27T00:58:27.309Z,75.06
2019-06-27T00:59:03.470Z,74.85
2019-06-27T00:59:39.416Z,74.81
2019-06-27T01:00:15.655Z,74.61
2019-06-27T01:00:51.721Z,74.45
2019-06-27T01:01:27.813Z,74.39
2019-06-27T01:02:04.100Z,74.18
2019-06-27T01:02:40.253Z,74.16
2019-06-27T01:03:16.433Z,74.05
2019-06-27T01:03:52.534Z,73.81
2019-06-27T01:04:28.575Z,73.77
2019-06-27T01:05:04.506Z,73.60
2019-06-27T01:05:40.340Z,73.55
2019-06-27T01:06:17.863Z,73.56
2019-06-27T01:06:54.019Z,73.57
2019-06-27T01:07:30.234Z,73.50
2019-06-27T01:08:06.140Z,73.43
2019-06-27T01:08:42.031Z,73.48
2019-06-27T01:09:18.359Z,73.44
2019-06-27T01:09:54.148Z,73.31
2019-06-27T01:10:30.134Z,73.16
2019-06-27T01:11:06.152Z,72.81
2019-06-27T01:11:42.148Z,72.47
2019-06-27T01:12:18.131Z,72.40
2019-06-27T01:12:54.469Z,72.25
2019-06-27T01:13:30.603Z,72.10
2019-06-27T01:14:06.844Z,71.84
2019-06-27T01:14:42.868Z,71.60
2019-06-27T01:15:18.939Z,71.25
2019-06-27T01:15:55.198Z,71.01
2019-06-27T01:16:31.249Z,70.81
2019-06-27T01:17:07.186Z,70.62
2019-06-27T01:17:43.066Z,70.29
2019-06-27T01:18:19.251Z,70.17
2019-06-27T01:18:55.130Z,70.11
2019-06-27T01:19:31.062Z,69.76
2019-06-27T01:20:07.346Z,69.33
2019-06-27T01:20:43.659Z,68.90
2019-06-27T01:21:19.497Z,68.68
2019-06-27T01:21:55.365Z,68.13
2019-06-27T01:22:31.688Z,67.77
2019-06-27T01:23:07.649Z,67.47
2019-06-27T01:23:45.134Z,67.26
2019-06-27T01:24:21.489Z,66.78
2019-06-27T01:24:57.416Z,66.40
2019-06-27T01:25:33.404Z,66.13
2019-06-27T01:26:09.224Z,65.94
2019-06-27T01:26:45.009Z,65.97
2019-06-27T01:27:29.871Z,65.78
2019-06-27T01:27:59.287Z,65.54
2019-06-27T01:28:35.126Z,65.21
2019-06-27T01:29:11.481Z,64.98
2019-06-27T01:29:48.031Z,64.82
2019-06-27T01:30:24.139Z,64.59
2019-06-27T01:31:00.526Z,64.45
2019-06-27T01:31:36.615Z,64.33
2019-06-27T01:32:12.644Z,64.04
2019-06-27T01:32:48.461Z,63.78
2019-06-27T01:33:24.610Z,63.50
2019-06-27T01:34:00.944Z,63.38
2019-06-27T01:34:36.971Z,63.22
2019-06-27T01:35:13.543Z,62.83
2019-06-27T01:35:49.434Z,62.42
2019-06-27T01:36:25.240Z,62.28
2019-06-27T01:37:01.066Z,62.27
2019-06-27T01:37:36.896Z,62.14
2019-06-27T01:38:12.670Z,61.93
2019-06-27T01:38:48.499Z,61.88
2019-06-27T01:39:24.319Z,61.25
2019-06-27T01:40:00.165Z,61.26
2019-06-27T01:40:36.039Z,61.05
2019-06-27T01:41:18.439Z,60.96
2019-06-27T01:41:54.381Z,60.89
2019-06-27T01:42:30.219Z,61.07
2019-06-27T01:43:06.074Z,60.71
2019-06-27T01:43:41.928Z,60.63
2019-06-27T01:44:35.057Z,60.37
2019-06-27T01:45:26.276Z,60.30
2019-06-27T01:46:02.313Z,60.15
2019-06-27T01:46:38.153Z,59.93
2019-06-27T01:47:14.009Z,59.67
2019-06-27T01:47:49.857Z,59.57
2019-06-27T01:48:25.738Z,59.58
2019-06-27T01:49:01.604Z,59.39
2019-06-27T01:49:37.532Z,59.29
2019-06-27T01:50:13.710Z,59.10
2019-06-27T01:50:49.550Z,58.94
2019-06-27T01:51:25.414Z,58.72
2019-06-27T01:52:01.387Z,58.44
2019-06-27T01:52:37.196Z,58.40
2019-06-27T01:53:13.002Z,58.38
2019-06-27T01:53:48.865Z,58.00
2019-06-27T01:54:24.987Z,57.75
2019-06-27T01:55:00.953Z,57.33
2019-06-27T01:55:36.837Z,57.31
2019-06-27T01:56:12.637Z,57.02
2019-06-27T01:56:48.488Z,56.92
2019-06-27T01:57:24.319Z,56.82
2019-06-27T01:58:00.168Z,56.79
2019-06-27T01:58:36.070Z,56.88
2019-06-27T01:59:12.040Z,56.75
2019-06-27T01:59:47.839Z,56.57
2019-06-27T02:00:23.768Z,56.50
2019-06-27T02:01:02.826Z,56.45
2019-06-27T02:01:37.778Z,56.33
2019-06-27T02:02:13.607Z,56.02
2019-06-27T02:02:49.484Z,56.06
2019-06-27T02:03:25.350Z,55.98
2019-06-27T02:04:01.319Z,56.02
2019-06-27T02:04:37.456Z,55.90
2019-06-27T02:05:13.313Z,55.87
2019-06-27T02:05:49.201Z,55.78
2019-06-27T02:06:25.045Z,55.72
2019-06-27T02:07:00.903Z,55.53
2019-06-27T02:07:36.945Z,55.30
2019-06-27T02:08:12.790Z,55.24
2019-06-27T02:08:48.670Z,55.27
2019-06-27T02:09:24.480Z,55.33
2019-06-27T02:10:00.358Z,54.95
2019-06-27T02:10:36.225Z,54.71
2019-06-27T02:11:12.084Z,54.67
2019-06-27T02:11:47.937Z,54.36
2019-06-27T02:12:23.791Z,54.32
2019-06-27T02:12:59.646Z,54.18
2019-06-27T02:13:35.552Z,53.89
2019-06-27T02:14:11.400Z,53.85
2019-06-27T02:14:47.269Z,53.79
2019-06-27T02:15:24.315Z,53.57
2019-06-27T02:16:00.140Z,53.52
2019-06-27T02:16:36.025Z,53.42
2019-06-27T02:17:11.836Z,53.19
2019-06-27T02:17:47.687Z,53.18
2019-06-27T02:18:23.515Z,53.09
2019-06-27T02:18:59.388Z,52.94
2019-06-27T02:19:35.288Z,52.64
2019-06-27T02:20:13.744Z,52.53
2019-06-27T02:20:49.601Z,52.43
2019-06-27T02:21:25.453Z,51.81
2019-06-27T02:22:01.671Z,51.41
2019-06-27T02:22:39.697Z,51.59
2019-06-27T02:23:16.144Z,51.54
2019-06-27T02:23:52.221Z,51.32
2019-06-27T02:24:28.138Z,50.84
2019-06-27T02:25:03.998Z,50.76
2019-06-27T02:25:39.902Z,50.64
2019-06-27T02:26:15.790Z,50.50
2019-06-27T02:26:51.736Z,50.45
2019-06-27T02:27:27.574Z,50.17
2019-06-27T02:28:04.579Z,49.97
2019-06-27T02:28:40.806Z,50.09
2019-06-27T02:29:16.632Z,50.17
2019-06-27T02:29:52.488Z,50.29
2019-06-27T02:30:36.048Z,49.90
2019-06-27T02:31:11.970Z,49.85
2019-06-27T02:31:47.803Z,49.82
2019-06-27T02:32:23.976Z,49.71
2019-06-27T02:32:59.915Z,49.84
2019-06-27T02:33:35.805Z,50.18
2019-06-27T02:34:11.786Z,50.30
2019-06-27T02:34:47.633Z,50.36
2019-06-27T02:35:23.625Z,50.47
2019-06-27T02:35:59.768Z,50.50
2019-06-27T02:36:35.632Z,50.43
2019-06-27T02:37:13.697Z,50.23
2019-06-27T02:37:49.563Z,50.03
2019-06-27T02:38:25.403Z,49.51
2019-06-27T02:39:01.263Z,49.55
2019-06-27T02:39:37.066Z,49.75
2019-06-27T02:40:13.116Z,49.78
2019-06-27T02:40:48.947Z,49.49
2019-06-27T02:41:24.779Z,49.09
2019-06-27T02:42:00.712Z,49.16
2019-06-27T02:42:36.625Z,49.61
2019-06-27T02:43:12.560Z,50.26
2019-06-27T02:43:48.534Z,50.79
2019-06-27T02:44:24.369Z,51.22
2019-06-27T02:45:00.197Z,51.94
2019-06-27T02:45:36.234Z,51.90
2019-06-27T02:46:12.214Z,52.06
2019-06-27T02:46:48.220Z,51.66
2019-06-27T02:47:24.025Z,51.41
2019-06-27T02:48:00.020Z,51.13
2019-06-27T02:48:35.890Z,51.23
2019-06-27T02:49:11.720Z,51.11
2019-06-27T02:49:50.312Z,50.93
2019-06-27T02:50:25.258Z,50.68
2019-06-27T02:51:01.130Z,50.38
2019-06-27T02:51:36.950Z,50.25
2019-06-27T02:52:12.806Z,50.16
2019-06-27T02:52:48.650Z,50.09
2019-06-27T02:53:24.498Z,49.94
2019-06-27T02:54:00.309Z,50.06
2019-06-27T02:54:36.148Z,50.08
2019-06-27T02:55:11.997Z,50.10
2019-06-27T02:55:47.949Z,50.33
2019-06-27T02:56:23.794Z,50.00
2019-06-27T02:56:59.701Z,49.79
2019-06-27T02:57:35.512Z,49.55
2019-06-27T02:58:28.757Z,49.24
2019-06-27T02:58:49.096Z,49.15
2019-06-27T02:59:24.936Z,48.88
2019-06-27T03:00:00.864Z,48.38
2019-06-27T03:00:36.734Z,48.25
2019-06-27T03:01:12.569Z,48.18
2019-06-27T03:01:48.515Z,48.14
2019-06-27T03:02:24.330Z,48.27
2019-06-27T03:03:00.151Z,48.34
2019-06-27T03:03:36.042Z,48.07
2019-06-27T03:04:11.883Z,47.92
2019-06-27T03:04:47.829Z,47.91
2019-06-27T03:05:23.933Z,47.75
2019-06-27T03:05:59.730Z,47.49
2019-06-27T03:06:35.585Z,47.53
2019-06-27T03:07:11.828Z,47.64
2019-06-27T03:07:47.715Z,47.51
2019-06-27T03:08:23.705Z,47.43
2019-06-27T03:08:59.538Z,47.60
2019-06-27T03:09:35.765Z,47.45
2019-06-27T03:10:11.826Z,47.18
2019-06-27T03:10:47.912Z,47.15
2019-06-27T03:11:23.767Z,47.06
2019-06-27T03:12:00.625Z,46.86
2019-06-27T03:12:36.966Z,46.77
2019-06-27T03:13:12.976Z,46.87
2019-06-27T03:13:48.882Z,46.88
2019-06-27T03:14:24.764Z,46.87
2019-06-27T03:15:00.622Z,47.02
2019-06-27T03:15:36.478Z,47.12
2019-06-27T03:16:12.333Z,46.99
2019-06-27T03:16:48.234Z,46.89
2019-06-27T03:17:24.043Z,46.73
2019-06-27T03:17:59.900Z,46.59
2019-06-27T03:18:35.904Z,46.66
2019-06-27T03:19:11.813Z,46.71
2019-06-27T03:19:48.001Z,46.72
2019-06-27T03:20:24.416Z,46.71
2019-06-27T03:21:00.217Z,46.80
2019-06-27T03:21:36.054Z,46.97
2019-06-27T03:22:12.090Z,47.12
2019-06-27T03:22:48.042Z,47.07
2019-06-27T03:23:24.012Z,46.98
2019-06-27T03:23:59.873Z,47.12
2019-06-27T03:24:35.727Z,47.10
2019-06-27T03:25:11.782Z,47.13
2019-06-27T03:25:47.651Z,47.23
2019-06-27T03:26:23.497Z,47.25
2019-06-27T03:26:59.348Z,47.18
2019-06-27T03:27:35.150Z,47.22
2019-06-27T03:28:11.754Z,47.12
2019-06-27T03:28:53.149Z,46.62
2019-06-27T03:29:25.957Z,46.52
2019-06-27T03:30:01.820Z,46.30
2019-06-27T03:30:37.757Z,46.18
2019-06-27T03:31:13.698Z,45.95
2019-06-27T03:31:49.664Z,45.57
2019-06-27T03:32:26.071Z,45.22
2019-06-27T03:33:02.842Z,45.04
2019-06-27T03:33:39.183Z,45.07
2019-06-27T03:34:15.097Z,45.19
2019-06-27T03:34:51.027Z,45.16
2019-06-27T03:35:30.570Z,45.05
2019-06-27T03:36:07.030Z,44.99
2019-06-27T03:36:42.936Z,45.01
2019-06-27T03:37:19.365Z,45.11
2019-06-27T03:37:55.647Z,45.07
2019-06-27T03:38:32.069Z,44.82
2019-06-27T03:39:08.300Z,43.81
2019-06-27T03:39:44.269Z,43.89
2019-06-27T03:40:20.138Z,44.18
2019-06-27T03:40:56.565Z,44.33
2019-06-27T03:41:32.678Z,44.19
2019-06-27T03:42:08.995Z,44.33
2019-06-27T03:42:44.885Z,44.41
2019-06-27T03:43:21.294Z,44.49
2019-06-27T03:43:58.246Z,44.55
2019-06-27T03:44:34.502Z,44.53
2019-06-27T03:45:15.340Z,44.57
2019-06-27T03:45:48.014Z,44.77
2019-06-27T03:46:23.933Z,44.60
2019-06-27T03:47:00.310Z,44.67
2019-06-27T03:47:36.284Z,44.60
2019-06-27T03:48:12.272Z,44.58
2019-06-27T03:48:48.603Z,44.61
2019-06-27T03:49:24.472Z,44.26
2019-06-27T03:50:00.716Z,44.26
2019-06-27T03:50:36.806Z,44.30
2019-06-27T03:51:13.120Z,44.38
2019-06-27T03:51:49.036Z,44.56
2019-06-27T03:52:25.637Z,44.75
2019-06-27T03:53:01.698Z,44.72
2019-06-27T03:53:38.066Z,44.60
2019-06-27T03:54:14.320Z,44.54
2019-06-27T03:54:50.547Z,44.26
2019-06-27T03:55:26.536Z,44.12
2019-06-27T03:56:04.549Z,44.18
2019-06-27T03:56:40.528Z,44.21
2019-06-27T03:57:16.606Z,44.25
2019-06-27T03:57:52.771Z,43.98
2019-06-27T03:58:28.865Z,43.94
2019-06-27T03:59:12.327Z,43.95
2019-06-27T03:59:43.931Z,43.57
2019-06-27T04:00:26.814Z,43.40
2019-06-27T04:01:02.812Z,43.68
2019-06-27T04:01:39.582Z,43.72
2019-06-27T04:02:15.443Z,43.89
2019-06-27T04:02:51.414Z,43.96
2019-06-27T04:03:27.481Z,44.24
2019-06-27T04:04:03.417Z,44.26
2019-06-27T04:04:40.457Z,44.08
2019-06-27T04:05:17.031Z,43.85
2019-06-27T04:05:52.991Z,44.15
2019-06-27T04:06:28.842Z,43.88
2019-06-27T04:07:04.761Z,43.99
2019-06-27T04:07:44.190Z,44.05
2019-06-27T04:08:20.032Z,43.98
2019-06-27T04:08:55.877Z,44.08
2019-06-27T04:09:31.836Z,43.70
2019-06-27T04:10:08.007Z,43.56
2019-06-27T04:10:43.921Z,43.85
2019-06-27T04:11:19.881Z,44.06
2019-06-27T04:11:55.769Z,44.39
2019-06-27T04:12:31.788Z,44.58
2019-06-27T04:13:07.739Z,44.35
2019-06-27T04:13:44.082Z,44.37
2019-06-27T04:14:19.893Z,44.49
2019-06-27T04:15:00.312Z,44.53
2019-06-27T04:15:36.700Z,44.05
2019-06-27T04:16:12.554Z,44.02
2019-06-27T04:16:49.470Z,44.03
2019-06-27T04:17:25.794Z,43.83
2019-06-27T04:18:02.464Z,43.89
2019-06-27T04:18:38.553Z,43.89
2019-06-27T04:19:14.366Z,43.74
2019-06-27T04:19:51.084Z,43.72
2019-06-27T04:20:27.502Z,43.72
2019-06-27T04:21:03.395Z,43.59
2019-06-27T04:21:39.710Z,43.37
2019-06-27T04:22:17.639Z,43.44
2019-06-27T04:22:53.316Z,43.38
2019-06-27T04:23:29.268Z,43.22
2019-06-27T04:24:05.417Z,43.18
2019-06-27T04:24:41.412Z,42.71
2019-06-27T04:25:17.549Z,42.73
2019-06-27T04:25:53.929Z,42.54
2019-06-27T04:26:29.910Z,42.41
2019-06-27T04:27:05.947Z,42.47
2019-06-27T04:27:42.579Z,42.54
2019-06-27T04:28:18.437Z,42.51
2019-06-27T04:28:54.290Z,42.63
2019-06-27T04:29:34.042Z,42.70
2019-06-27T04:30:08.031Z,42.53
2019-06-27T04:30:43.968Z,42.48
2019-06-27T04:31:19.820Z,42.54
2019-06-27T04:31:55.643Z,42.94
2019-06-27T04:32:31.476Z,42.79
2019-06-27T04:33:07.326Z,42.75
2019-06-27T04:33:43.862Z,42.75
2019-06-27T04:34:20.393Z,42.57
2019-06-27T04:34:56.540Z,42.62
2019-06-27T04:35:33.637Z,42.68
2019-06-27T04:36:09.539Z,42.53
2019-06-27T04:36:45.935Z,42.23
2019-06-27T04:37:22.131Z,42.02
2019-06-27T04:37:58.105Z,41.73
2019-06-27T04:38:33.934Z,41.71
2019-06-27T04:39:09.771Z,41.83
2019-06-27T04:39:45.626Z,41.96
2019-06-27T04:40:21.841Z,41.76
2019-06-27T04:40:57.778Z,41.70
2019-06-27T04:41:33.919Z,42.17
2019-06-27T04:42:10.156Z,42.14
2019-06-27T04:42:46.053Z,41.96
2019-06-27T04:43:21.917Z,42.14
2019-06-27T04:43:58.258Z,42.21
2019-06-27T04:44:34.428Z,42.43
2019-06-27T04:45:10.370Z,42.63
2019-06-27T04:45:46.249Z,42.58
2019-06-27T04:46:22.916Z,42.52
2019-06-27T04:46:59.354Z,42.66
2019-06-27T04:47:35.357Z,42.75
2019-06-27T04:48:11.221Z,42.98
2019-06-27T04:48:47.288Z,42.97
2019-06-27T04:49:23.259Z,42.70
2019-06-27T04:49:59.112Z,42.57
2019-06-27T04:50:35.196Z,42.50
2019-06-27T04:51:11.107Z,42.43
2019-06-27T04:51:47.019Z,42.54
2019-06-27T04:52:23.096Z,42.64
2019-06-27T04:52:58.983Z,42.76
2019-06-27T04:53:34.997Z,42.99
2019-06-27T04:54:11.897Z,43.08
2019-06-27T04:54:47.996Z,43.08
2019-06-27T04:55:24.057Z,43.09
2019-06-27T04:55:59.894Z,42.93
2019-06-27T04:56:35.867Z,42.83
2019-06-27T04:57:11.748Z,42.86
2019-06-27T04:57:48.076Z,42.71
2019-06-27T04:58:24.372Z,42.74
2019-06-27T04:59:00.242Z,42.81
2019-06-27T04:59:51.836Z,43.02
2019-06-27T05:00:18.869Z,42.96
2019-06-27T05:00:54.742Z,42.86
2019-06-27T05:01:30.657Z,42.33
2019-06-27T05:02:06.789Z,42.19
2019-06-27T05:02:42.826Z,42.37
2019-06-27T05:03:19.341Z,42.44
2019-06-27T05:03:55.816Z,42.47
2019-06-27T05:04:32.159Z,42.22
2019-06-27T05:05:08.404Z,41.91
2019-06-27T05:05:44.561Z,41.80
2019-06-27T05:06:20.799Z,41.49
2019-06-27T05:06:56.746Z,41.37
2019-06-27T05:07:32.790Z,41.33
2019-06-27T05:08:08.699Z,41.71
2019-06-27T05:08:44.559Z,41.84
2019-06-27T05:09:20.397Z,41.85
2019-06-27T05:09:56.221Z,41.82
2019-06-27T05:10:32.068Z,41.66
2019-06-27T05:11:07.902Z,41.41
2019-06-27T05:11:43.721Z,41.41
2019-06-27T05:12:19.576Z,41.47
2019-06-27T05:12:55.398Z,41.74
2019-06-27T05:13:31.200Z,42.23
2019-06-27T05:14:06.991Z,42.49
2019-06-27T05:14:42.881Z,42.65
2019-06-27T05:15:18.709Z,42.73
2019-06-27T05:15:54.553Z,42.46
2019-06-27T05:16:30.410Z,42.26
2019-06-27T05:17:06.238Z,42.48
2019-06-27T05:17:42.204Z,42.58
2019-06-27T05:18:18.106Z,42.59
2019-06-27T05:18:53.896Z,42.90
2019-06-27T05:19:29.746Z,43.08
2019-06-27T05:20:05.867Z,43.09
2019-06-27T05:20:41.675Z,42.82
2019-06-27T05:21:17.617Z,42.64
2019-06-27T05:21:53.449Z,42.56
2019-06-27T05:22:29.561Z,42.45
2019-06-27T05:23:05.401Z,42.39
2019-06-27T05:23:41.274Z,42.52
2019-06-27T05:24:17.129Z,42.56
2019-06-27T05:24:52.955Z,42.87
2019-06-27T05:25:29.866Z,42.67
2019-06-27T05:26:06.083Z,42.64
2019-06-27T05:26:41.918Z,42.92
2019-06-27T05:27:17.731Z,42.89
2019-06-27T05:27:53.564Z,43.15
2019-06-27T05:28:29.440Z,43.46
2019-06-27T05:29:05.238Z,43.93
2019-06-27T05:29:41.086Z,44.04
2019-06-27T05:30:17.021Z,44.10
2019-06-27T05:30:52.908Z,44.17
2019-06-27T05:31:28.899Z,44.16
2019-06-27T05:32:04.754Z,44.14
2019-06-27T05:32:40.534Z,44.08
2019-06-27T05:33:16.349Z,43.89
2019-06-27T05:33:52.474Z,43.76
2019-06-27T05:34:28.358Z,43.69
2019-06-27T05:35:04.228Z,43.52
2019-06-27T05:35:40.118Z,43.40
2019-06-27T05:36:15.935Z,43.35
2019-06-27T05:36:51.803Z,43.38
2019-06-27T05:37:27.647Z,43.33
2019-06-27T05:38:03.504Z,43.36
2019-06-27T05:38:39.258Z,43.28
2019-06-27T05:39:15.071Z,43.42
2019-06-27T05:39:50.872Z,43.61
2019-06-27T05:40:26.683Z,43.76
2019-06-27T05:41:02.560Z,43.88
2019-06-27T05:41:38.424Z,44.08
2019-06-27T05:42:14.242Z,44.27
2019-06-27T05:42:50.050Z,44.26
2019-06-27T05:43:26.135Z,44.15
2019-06-27T05:44:02.134Z,44.12
2019-06-27T05:44:38.059Z,44.09
2019-06-27T05:45:13.889Z,44.26
2019-06-27T05:45:49.742Z,44.49
2019-06-27T05:46:25.577Z,44.59
2019-06-27T05:47:01.438Z,44.65
2019-06-27T05:47:37.356Z,44.72
2019-06-27T05:48:13.150Z,44.93
2019-06-27T05:48:48.994Z,45.13
2019-06-27T05:49:24.851Z,45.35
2019-06-27T05:50:00.682Z,45.34
2019-06-27T05:50:36.533Z,45.44
2019-06-27T05:51:12.360Z,45.89
2019-06-27T05:51:48.199Z,45.91
2019-06-27T05:52:23.999Z,46.07
2019-06-27T05:52:59.912Z,45.83
2019-06-27T05:53:35.813Z,45.30
2019-06-27T05:54:11.632Z,45.02
2019-06-27T05:54:47.441Z,44.82
2019-06-27T05:55:23.256Z,44.74
2019-06-27T05:55:59.093Z,44.77
2019-06-27T05:56:34.904Z,44.99
2019-06-27T05:57:10.741Z,45.21
2019-06-27T05:57:46.627Z,45.41
2019-06-27T05:58:22.688Z,45.37
2019-06-27T05:58:58.614Z,45.36
2019-06-27T05:59:34.494Z,45.35
2019-06-27T06:00:26.882Z,45.18
2019-06-27T06:00:48.254Z,44.92
2019-06-27T06:01:24.090Z,44.87
2019-06-27T06:02:00.220Z,44.91
2019-06-27T06:02:36.281Z,44.96
2019-06-27T06:03:12.145Z,45.13
2019-06-27T06:03:48.031Z,45.27
2019-06-27T06:04:24.219Z,45.55
2019-06-27T06:05:00.167Z,45.62
2019-06-27T06:05:35.961Z,45.71
2019-06-27T06:06:11.972Z,45.71
2019-06-27T06:06:48.316Z,45.71
2019-06-27T06:07:24.221Z,45.45
2019-06-27T06:08:00.122Z,45.25
2019-06-27T06:08:36.016Z,45.22
2019-06-27T06:09:11.957Z,45.10
2019-06-27T06:09:47.805Z,45.05
2019-06-27T06:10:23.629Z,45.01
2019-06-27T06:10:59.457Z,44.70
2019-06-27T06:11:35.285Z,44.71
2019-06-27T06:12:11.184Z,44.74
2019-06-27T06:12:46.983Z,44.68
2019-06-27T06:13:22.879Z,44.46
2019-06-27T06:13:58.885Z,44.17
2019-06-27T06:14:34.801Z,44.01
2019-06-27T06:15:10.693Z,44.08
2019-06-27T06:15:46.767Z,44.04
2019-06-27T06:16:22.608Z,44.02
2019-06-27T06:16:58.455Z,43.88
2019-06-27T06:17:34.395Z,43.67
2019-06-27T06:18:10.192Z,43.62
2019-06-27T06:18:46.050Z,43.44
2019-06-27T06:19:21.868Z,43.21
2019-06-27T06:19:57.784Z,43.37
2019-06-27T06:20:33.575Z,43.33
2019-06-27T06:21:09.441Z,43.33
2019-06-27T06:21:45.354Z,43.29
2019-06-27T06:22:21.249Z,43.14
2019-06-27T06:22:57.198Z,43.11
2019-06-27T06:23:33.129Z,43.06
2019-06-27T06:24:08.968Z,43.03
2019-06-27T06:24:44.947Z,43.08
2019-06-27T06:25:20.741Z,43.31
2019-06-27T06:25:56.625Z,43.49
2019-06-27T06:26:32.480Z,43.78
2019-06-27T06:27:08.410Z,43.69
2019-06-27T06:27:44.245Z,43.59
2019-06-27T06:28:20.200Z,43.53
2019-06-27T06:28:56.018Z,43.46
2019-06-27T06:29:31.860Z,43.26
2019-06-27T06:30:08.479Z,43.18
2019-06-27T06:30:45.359Z,43.31
2019-06-27T06:31:21.358Z,43.22
2019-06-27T06:31:57.193Z,42.95
2019-06-27T06:32:32.967Z,43.19
2019-06-27T06:33:08.790Z,43.32
2019-06-27T06:33:44.665Z,43.64
2019-06-27T06:34:20.845Z,43.90
2019-06-27T06:34:56.639Z,44.11
2019-06-27T06:35:32.491Z,44.16
2019-06-27T06:36:08.323Z,44.21
2019-06-27T06:36:44.214Z,43.92
2019-06-27T06:37:20.176Z,43.67
2019-06-27T06:37:56.006Z,43.46
2019-06-27T06:38:31.846Z,43.26
2019-06-27T06:39:07.670Z,43.37
2019-06-27T06:39:43.636Z,43.33
2019-06-27T06:40:19.676Z,43.26
2019-06-27T06:40:55.513Z,43.33
2019-06-27T06:41:31.446Z,43.33
2019-06-27T06:42:07.241Z,43.38
2019-06-27T06:42:43.203Z,43.49
2019-06-27T06:43:19.049Z,43.54
2019-06-27T06:43:54.911Z,43.65
2019-06-27T06:44:30.766Z,43.67
2019-06-27T06:45:06.752Z,43.65
2019-06-27T06:45:42.577Z,43.85
2019-06-27T06:46:18.816Z,45.83
2019-06-27T06:46:54.646Z,46.20
2019-06-27T06:47:30.453Z,46.23
2019-06-27T06:48:06.261Z,46.25
2019-06-27T06:48:42.280Z,46.58
2019-06-27T06:49:18.110Z,46.72
2019-06-27T06:49:53.963Z,46.89
2019-06-27T06:50:29.798Z,47.06
2019-06-27T06:51:05.707Z,47.16
2019-06-27T06:51:41.505Z,47.18
2019-06-27T06:52:17.343Z,47.15
2019-06-27T06:52:53.259Z,47.10
2019-06-27T06:53:29.189Z,47.12
2019-06-27T06:54:05.110Z,47.29
2019-06-27T06:54:41.024Z,47.50
2019-06-27T06:55:16.906Z,47.45
2019-06-27T06:55:53.017Z,47.17
2019-06-27T06:56:28.961Z,46.79
2019-06-27T06:57:04.814Z,46.74
2019-06-27T06:57:40.683Z,46.83
2019-06-27T06:58:16.492Z,46.70
2019-06-27T06:58:52.321Z,46.64
2019-06-27T06:59:28.143Z,46.81
2019-06-27T07:00:04.013Z,47.14
2019-06-27T07:00:39.923Z,47.42
2019-06-27T07:01:15.803Z,47.55
2019-06-27T07:01:51.691Z,47.85
2019-06-27T07:02:27.679Z,48.07
2019-06-27T07:03:03.528Z,48.25
2019-06-27T07:03:39.408Z,48.41
2019-06-27T07:04:15.193Z,48.50
2019-06-27T07:04:51.017Z,48.57
2019-06-27T07:05:29.128Z,48.55
2019-06-27T07:06:04.835Z,48.51
2019-06-27T07:06:40.758Z,48.56
2019-06-27T07:07:16.594Z,48.46
2019-06-27T07:07:52.388Z,48.37
2019-06-27T07:08:28.231Z,48.37
2019-06-27T07:09:04.339Z,48.63
2019-06-27T07:09:41.336Z,48.89
2019-06-27T07:10:18.515Z,49.32
2019-06-27T07:10:54.828Z,49.53
2019-06-27T07:11:30.684Z,50.00
2019-06-27T07:12:06.543Z,50.31
2019-06-27T07:12:42.429Z,50.55
2019-06-27T07:13:18.279Z,50.90
2019-06-27T07:13:57.043Z,51.19
2019-06-27T07:14:32.856Z,51.32
2019-06-27T07:15:08.935Z,51.47
2019-06-27T07:15:44.835Z,51.73
2019-06-27T07:16:20.690Z,51.90
2019-06-27T07:16:56.628Z,51.93
2019-06-27T07:17:32.605Z,52.05
2019-06-27T07:18:08.447Z,52.12
2019-06-27T07:18:44.429Z,52.27
2019-06-27T07:19:20.282Z,52.33
2019-06-27T07:19:57.563Z,52.44
2019-06-27T07:20:33.734Z,52.55
2019-06-27T07:21:09.677Z,52.67
2019-06-27T07:21:45.549Z,52.73
2019-06-27T07:22:21.444Z,52.75
2019-06-27T07:22:57.415Z,52.71
2019-06-27T07:23:33.288Z,52.71
2019-06-27T07:24:09.200Z,52.87
2019-06-27T07:24:45.048Z,52.88
2019-06-27T07:25:20.947Z,53.07
2019-06-27T07:25:56.821Z,53.17
2019-06-27T07:26:32.629Z,53.19
2019-06-27T07:27:08.508Z,53.29
2019-06-27T07:27:44.347Z,53.52
2019-06-27T07:28:20.410Z,53.88
2019-06-27T07:28:56.325Z,53.99
2019-06-27T07:29:32.187Z,53.96
2019-06-27T07:30:08.305Z,53.98
2019-06-27T07:30:44.171Z,54.14
2019-06-27T07:31:19.957Z,54.11
2019-06-27T07:31:55.983Z,54.21
2019-06-27T07:32:31.871Z,54.31
2019-06-27T07:33:10.193Z,54.25
2019-06-27T07:33:45.610Z,54.04
2019-06-27T07:34:21.586Z,53.95
2019-06-27T07:34:58.349Z,53.65
2019-06-27T07:35:34.199Z,53.69
2019-06-27T07:36:10.051Z,53.67
2019-06-27T07:36:45.904Z,53.69
2019-06-27T07:37:21.719Z,53.93
2019-06-27T07:37:57.697Z,54.13
2019-06-27T07:38:33.514Z,54.33
2019-06-27T07:39:09.371Z,54.40
2019-06-27T07:39:45.258Z,54.08
2019-06-27T07:40:21.207Z,54.12
2019-06-27T07:40:57.016Z,54.26
2019-06-27T07:41:32.858Z,54.43
2019-06-27T07:42:08.690Z,54.38
2019-06-27T07:42:44.616Z,54.32
2019-06-27T07:43:20.491Z,54.27
2019-06-27T07:43:56.460Z,54.30
2019-06-27T07:44:32.267Z,54.34
2019-06-27T07:45:08.382Z,54.40
2019-06-27T07:45:44.201Z,54.48